133  
SHUS65 KGJT 252017  
FWOGJT  
 
DAILY FIRE WEATHER OBSERVATION  
NATIONAL WEATHER SERVICE GRAND JUNCTION CO  
215 PM MDT MON OCT 25 2021  
 
STATE OF THE WEATHER (W) 0  
DRY BULB TEMPERATURE 74 DEGREES FAHRENHEIT  
RELATIVE HUMIDITY (RH) 21 PERCENT  
LIGHTNING ACTIVITY LEVEL  
(LAL - MIDNIGHT TO 2 PM) 1  
WIND DIRECTION 180 DEGREES (C IF CALM)  
WIND SPEED 8 MPH  
MAX TEMP (2 PM - 2 PM) 74 DEGREES FAHRENHEIT  
MIN TEMP (2 PM - 2 PM) 48 DEGREES FAHRENHEIT  
MAX RH (2 PM - 2 PM) 66 PERCENT  
MIN RH (2 PM - 2 PM) 21 PERCENT  
PCPN DURATION 0.0 HOURS  
PCPN AMT (2 PM - 2 PM) 0.0 INCHES  
LAL (2 PM - 2 PM) 1  
 

 
 
METAR KGJT 251953Z 19007G18KT 10SM CLR 23/00 A2982 RMK AO2 PK  
WND 15026/1855 SLP043 T02330000  
 
CLICK HERE TO GO TO PREVIOUS BULLETINS.

The Nexlab CO Page
The Nexlab UT Page Main Text Page